Barkley Regional Airport Paducah US
ICAO: KPAH
IATA: PAH
Category: Medium
Scheduled Services: Yes

Elevation: 410 ft
TransAlt. 18000 ft.

Airport Communications:
ASOS:118.375
MEMPHIS CNTR:133.65
CTAF:119.6
GND:121.7
LOUISVILLE RDO:122.2
PADUCAH TWR:119.6
UNICOM:123

KPAH Zoom In..

Runways:

(A) RW 04 length 6500 ft width 150 ft
ILS 108.50 / hdg 45

(B) RW 14 length 5499 ft width 150 ft
---- / hdg 140

(C) RW 22 length 6500 ft width 150 ft
---- / hdg 225

(D) RW 32 length 5499 ft width 150 ft
---- / hdg 320

Location; KPAH
Day. 15 / Time. 22.53 Zulu
* Altimeter: 29.96
* Temperature: 26° c. 78.8°f.
* Wind from: VRB° Speed 04 kn.
Dewpoint: 22° c.
Visibility: 10 Statute Miles.
Clouds: Clear (automated report).

KPAH 152253Z VRB04KT 10SM CLR 26/22 A2996 RMK AO2 LTG DSNT W SLP139 T02560222 $


Wind From VRB°
Speed 04 kn.

 
 
jpsmedia.com for Web Design worldairports.se 2018   terms of use